createdAt,value
2019-02-20T00:00:21.068Z,100505
2019-02-20T00:05:21.077Z,100505
2019-02-20T00:10:21.088Z,100506
2019-02-20T00:15:21.094Z,100513
2019-02-20T00:20:21.078Z,100504
2019-02-20T00:25:21.073Z,100509
2019-02-20T00:30:21.114Z,100521
2019-02-20T00:35:21.059Z,100529
2019-02-20T00:40:21.065Z,100528
2019-02-20T00:45:21.109Z,100534
2019-02-20T00:50:21.089Z,100530
2019-02-20T00:55:21.059Z,100520
2019-02-20T01:00:21.084Z,100524
2019-02-20T01:05:21.078Z,100531
2019-02-20T01:10:21.088Z,100532
2019-02-20T01:15:21.060Z,100526
2019-02-20T01:20:21.090Z,100528
2019-02-20T01:25:21.059Z,100537
2019-02-20T01:30:21.111Z,100526
2019-02-20T01:35:21.120Z,100527
2019-02-20T01:40:21.146Z,100522
2019-02-20T01:45:21.107Z,100521
2019-02-20T01:50:21.064Z,100519
2019-02-20T01:55:21.088Z,100532
2019-02-20T02:00:21.098Z,100517
2019-02-20T02:05:21.144Z,100520
2019-02-20T02:10:21.105Z,100526
2019-02-20T02:15:21.097Z,100524
2019-02-20T02:20:21.144Z,100532
2019-02-20T02:25:21.095Z,100526
2019-02-20T02:30:21.137Z,100523
2019-02-20T02:35:21.104Z,100512
2019-02-20T02:40:21.120Z,100526
2019-02-20T02:45:21.131Z,100537
2019-02-20T02:50:21.111Z,100526
2019-02-20T02:55:21.125Z,100538
2019-02-20T03:00:21.120Z,100528
2019-02-20T03:05:21.123Z,100533
2019-02-20T03:10:21.165Z,100514
2019-02-20T03:15:21.118Z,100520
2019-02-20T03:20:21.117Z,100519
2019-02-20T03:25:21.156Z,100522
2019-02-20T03:30:21.153Z,100526
2019-02-20T03:35:21.133Z,100533
2019-02-20T03:40:21.127Z,100546
2019-02-20T03:45:21.134Z,100545
2019-02-20T03:50:21.128Z,100541
2019-02-20T03:55:21.123Z,100548
2019-02-20T04:00:21.127Z,100545
2019-02-20T04:05:21.126Z,100548
2019-02-20T04:10:21.131Z,100545
2019-02-20T04:15:21.123Z,100551
2019-02-20T04:20:21.153Z,100556
2019-02-20T04:25:21.136Z,100572
2019-02-20T04:30:21.129Z,100568
2019-02-20T04:35:21.224Z,100571
2019-02-20T04:40:21.166Z,100577
2019-02-20T04:45:21.124Z,100564
2019-02-20T04:50:21.179Z,100568
2019-02-20T04:55:21.172Z,100573
2019-02-20T05:00:21.154Z,100562
2019-02-20T05:05:21.136Z,100572
2019-02-20T05:10:21.128Z,100570
2019-02-20T05:15:21.145Z,100571
2019-02-20T05:20:21.146Z,100565
2019-02-20T05:25:21.142Z,100576
2019-02-20T05:30:21.145Z,100579
2019-02-20T05:35:21.152Z,100566
2019-02-20T05:40:21.185Z,100572
2019-02-20T05:45:21.166Z,100570
2019-02-20T05:50:21.153Z,100572
2019-02-20T05:55:21.170Z,100572
2019-02-20T06:00:21.173Z,100593
2019-02-20T06:05:21.201Z,100595
2019-02-20T06:10:21.204Z,100605
2019-02-20T06:15:21.166Z,100605
2019-02-20T06:20:21.163Z,100615
2019-02-20T06:25:21.164Z,100613
2019-02-20T06:30:21.184Z,100625
2019-02-20T06:35:21.160Z,100626
2019-02-20T06:40:21.162Z,100616
2019-02-20T06:45:21.199Z,100645
2019-02-20T06:50:21.182Z,100649
2019-02-20T06:55:21.156Z,100642
2019-02-20T07:00:21.181Z,100650
2019-02-20T07:05:21.170Z,100656
2019-02-20T07:10:21.177Z,100658
2019-02-20T07:15:21.201Z,100652
2019-02-20T07:20:21.176Z,100659
2019-02-20T07:25:21.179Z,100672
2019-02-20T07:30:21.179Z,100671
2019-02-20T07:35:21.207Z,100669
2019-02-20T07:40:21.188Z,100679
2019-02-20T07:45:21.183Z,100697
2019-02-20T07:50:21.193Z,100699
2019-02-20T07:55:21.202Z,100697
2019-02-20T08:00:21.212Z,100701
2019-02-20T08:05:21.209Z,100723
2019-02-20T08:10:21.183Z,100722
2019-02-20T08:15:21.204Z,100732
2019-02-20T08:20:21.209Z,100724
2019-02-20T08:25:22.999Z,100728
2019-02-20T08:30:21.199Z,100728
2019-02-20T08:35:21.201Z,100750
2019-02-20T08:40:21.208Z,100750
2019-02-20T08:45:21.217Z,100740
2019-02-20T08:50:21.218Z,100749
2019-02-20T08:55:21.234Z,100763
2019-02-20T09:00:21.216Z,100759
2019-02-20T09:05:21.249Z,100768
2019-02-20T09:10:21.235Z,100763
2019-02-20T09:15:21.213Z,100762
2019-02-20T09:20:21.218Z,100770
2019-02-20T09:25:21.213Z,100766
2019-02-20T09:30:28.215Z,100771
2019-02-20T09:35:21.249Z,100772
2019-02-20T09:40:21.226Z,100765
2019-02-20T09:45:21.210Z,100788
2019-02-20T09:50:21.254Z,100783
2019-02-20T09:55:21.226Z,100778
2019-02-20T10:00:21.233Z,100786
2019-02-20T10:05:21.263Z,100789
2019-02-20T10:10:21.241Z,100794
2019-02-20T10:15:21.236Z,100793
2019-02-20T10:20:21.244Z,100797
2019-02-20T10:25:21.349Z,100810
2019-02-20T10:30:21.249Z,100806
2019-02-20T10:35:21.232Z,100804
2019-02-20T10:40:21.240Z,100805
2019-02-20T10:45:21.243Z,100801
2019-02-20T10:50:21.238Z,100807
2019-02-20T10:55:21.277Z,100799
2019-02-20T11:00:24.124Z,100803
2019-02-20T11:05:21.251Z,100800
2019-02-20T11:10:21.253Z,100810
2019-02-20T11:15:21.246Z,100802
2019-02-20T11:20:21.257Z,100798
2019-02-20T11:25:21.247Z,100801
2019-02-20T11:30:21.253Z,100795
2019-02-20T11:35:21.266Z,100800
2019-02-20T11:40:21.256Z,100797
2019-02-20T11:45:21.266Z,100796
2019-02-20T11:50:21.309Z,100799
2019-02-20T11:55:21.259Z,100785
2019-02-20T12:00:21.261Z,100785
2019-02-20T12:05:21.265Z,100792
2019-02-20T12:10:21.274Z,100800
2019-02-20T12:15:21.268Z,100791
2019-02-20T12:20:21.297Z,100791
2019-02-20T12:25:21.276Z,100795
2019-02-20T12:30:21.263Z,100787
2019-02-20T12:35:21.320Z,100791
2019-02-20T12:40:21.263Z,100791
2019-02-20T12:45:21.290Z,100790
2019-02-20T12:50:21.280Z,100796
2019-02-20T12:55:21.275Z,100810
2019-02-20T13:00:21.293Z,100805
2019-02-20T13:05:21.321Z,100799
2019-02-20T13:10:21.263Z,100791
2019-02-20T13:15:21.260Z,100795
2019-02-20T13:20:21.419Z,100792
2019-02-20T13:25:21.262Z,100791
2019-02-20T13:30:21.278Z,100788
2019-02-20T13:35:21.295Z,100783
2019-02-20T13:40:21.307Z,100784
2019-02-20T13:45:21.298Z,100778
2019-02-20T13:50:21.286Z,100783
2019-02-20T13:55:21.284Z,100782
2019-02-20T14:00:21.297Z,100782
2019-02-20T14:05:21.288Z,100783
2019-02-20T14:10:21.312Z,100791
2019-02-20T14:15:21.291Z,100789
2019-02-20T14:20:21.306Z,100783
2019-02-20T14:25:21.304Z,100786
2019-02-20T14:30:21.327Z,100783
2019-02-20T14:35:21.299Z,100790
2019-02-20T14:40:21.304Z,100790
2019-02-20T14:45:21.319Z,100795
2019-02-20T14:50:21.334Z,100796
2019-02-20T14:55:21.302Z,100798
2019-02-20T15:00:21.315Z,100797
2019-02-20T15:05:21.306Z,100787
2019-02-20T15:10:21.306Z,100797
2019-02-20T15:15:21.307Z,100794
2019-02-20T15:20:21.329Z,100802
2019-02-20T15:25:21.309Z,100810
2019-02-20T15:30:21.306Z,100813
2019-02-20T15:35:21.318Z,100803
2019-02-20T15:40:21.315Z,100810
2019-02-20T15:45:21.326Z,100806
2019-02-20T15:50:21.325Z,100811
2019-02-20T15:55:21.330Z,100815
2019-02-20T16:00:21.335Z,100812
2019-02-20T16:05:21.346Z,100822
2019-02-20T16:10:21.651Z,100823
2019-02-20T16:15:21.319Z,100821
2019-02-20T16:20:21.308Z,100832
2019-02-20T16:25:21.314Z,100838
2019-02-20T16:30:21.333Z,100848
2019-02-20T16:35:21.323Z,100855
2019-02-20T16:40:21.314Z,100852
2019-02-20T16:45:21.334Z,100854
2019-02-20T16:50:21.328Z,100865
2019-02-20T16:55:22.646Z,100869
2019-02-20T17:00:21.357Z,100868
2019-02-20T17:05:21.337Z,100887
2019-02-20T17:10:21.331Z,100898
2019-02-20T17:15:21.344Z,100902
2019-02-20T17:20:21.331Z,100899
2019-02-20T17:25:21.315Z,100905
2019-02-20T17:30:21.353Z,100905
2019-02-20T17:35:21.338Z,100901
2019-02-20T17:40:21.344Z,100901
2019-02-20T17:45:21.389Z,100910
2019-02-20T17:50:21.326Z,100912
2019-02-20T17:55:21.344Z,100909
2019-02-20T18:00:21.371Z,100919
2019-02-20T18:05:21.343Z,100925
2019-02-20T18:10:21.339Z,100924
2019-02-20T18:15:21.354Z,100924
2019-02-20T18:20:21.357Z,100941
2019-02-20T18:25:21.372Z,100930
2019-02-20T18:30:21.358Z,100936
2019-02-20T18:35:21.359Z,100935
2019-02-20T18:40:21.363Z,100938
2019-02-20T18:45:21.485Z,100938
2019-02-20T18:50:21.434Z,100942
2019-02-20T18:55:21.369Z,100945
2019-02-20T19:00:21.382Z,100941
2019-02-20T19:05:21.378Z,100952
2019-02-20T19:10:21.375Z,100955
2019-02-20T19:15:21.395Z,100954
2019-02-20T19:20:21.431Z,100953
2019-02-20T19:25:21.373Z,100958
2019-02-20T19:30:21.395Z,100965
2019-02-20T19:35:21.402Z,100964
2019-02-20T19:40:21.412Z,100967
2019-02-20T19:45:21.389Z,100967
2019-02-20T19:50:21.369Z,100973
2019-02-20T19:55:21.383Z,100972
2019-02-20T20:00:21.421Z,100972
2019-02-20T20:05:22.502Z,100972
2019-02-20T20:10:21.388Z,100976
2019-02-20T20:15:21.429Z,100968
2019-02-20T20:20:21.403Z,100969
2019-02-20T20:25:21.425Z,100972
2019-02-20T20:30:21.426Z,100976
2019-02-20T20:35:21.409Z,100978
2019-02-20T20:40:21.394Z,100975
2019-02-20T20:45:21.435Z,100976
2019-02-20T20:50:21.418Z,100974
2019-02-20T20:55:21.392Z,100972
2019-02-20T21:00:21.474Z,100967
2019-02-20T21:05:21.413Z,100962
2019-02-20T21:10:21.396Z,100959
2019-02-20T21:15:21.422Z,100965
2019-02-20T21:20:21.410Z,100957
2019-02-20T21:25:21.404Z,100967
2019-02-20T21:30:21.424Z,100958
2019-02-20T21:35:21.405Z,100962
2019-02-20T21:40:21.441Z,100970
2019-02-20T21:45:21.457Z,100964
2019-02-20T21:50:21.449Z,100967
2019-02-20T21:55:21.407Z,100963
2019-02-20T22:00:21.454Z,100970
2019-02-20T22:05:21.423Z,100976
2019-02-20T22:10:21.404Z,100985
2019-02-20T22:15:21.421Z,100973
2019-02-20T22:20:21.459Z,100971
2019-02-20T22:25:21.407Z,100969
2019-02-20T22:30:21.418Z,100968
2019-02-20T22:35:21.430Z,100968
2019-02-20T22:40:21.412Z,100967
2019-02-20T22:45:21.427Z,100968
2019-02-20T22:50:21.421Z,100967
2019-02-20T22:55:21.434Z,100977
2019-02-20T23:00:21.466Z,100974
2019-02-20T23:05:21.427Z,100980
2019-02-20T23:10:21.438Z,100969
2019-02-20T23:15:21.446Z,100976
2019-02-20T23:20:21.448Z,100978
2019-02-20T23:25:21.420Z,100991
2019-02-20T23:30:21.460Z,100998
2019-02-20T23:35:21.424Z,100992
2019-02-20T23:40:21.434Z,100987
2019-02-20T23:45:21.491Z,101007
2019-02-20T23:50:21.440Z,101014
2019-02-20T23:55:21.442Z,101008
